sensor_id;sensor_type;location;lat;lon;timestamp;temperature;humidity
7143;DHT22;3613;48.902;9.204;2024-03-23T00:53:49;21.10;99.90
7143;DHT22;3613;48.902;9.204;2024-03-23T00:56:15;21.00;99.90
7143;DHT22;3613;48.902;9.204;2024-03-23T00:58:40;21.00;99.90
7143;DHT22;3613;48.902;9.204;2024-03-23T01:01:06;21.00;99.90
7143;DHT22;3613;48.902;9.204;2024-03-23T01:03:32;21.10;99.90
7143;DHT22;3613;48.902;9.204;2024-03-23T01:06:00;21.00;99.90
7143;DHT22;3613;48.902;9.204;2024-03-23T01:08:26;21.10;99.90
7143;DHT22;3613;48.902;9.204;2024-03-23T01:10:59;21.00;99.90
7143;DHT22;3613;48.902;9.204;2024-03-23T01:13:25;21.00;99.90
7143;DHT22;3613;48.902;9.204;2024-03-23T01:15:51;21.00;99.90
7143;DHT22;3613;48.902;9.204;2024-03-23T01:18:20;21.00;99.90
7143;DHT22;3613;48.902;9.204;2024-03-23T01:20:46;21.00;99.90
7143;DHT22;3613;48.902;9.204;2024-03-23T01:23:12;21.00;99.90
7143;DHT22;3613;48.902;9.204;2024-03-23T01:25:38;20.90;99.90
7143;DHT22;3613;48.902;9.204;2024-03-23T01:28:07;20.90;99.90
7143;DHT22;3613;48.902;9.204;2024-03-23T01:30:33;20.90;99.90
7143;DHT22;3613;48.902;9.204;2024-03-23T01:32:59;20.90;99.90
7143;DHT22;3613;48.902;9.204;2024-03-23T01:35:24;20.90;99.90
7143;DHT22;3613;48.902;9.204;2024-03-23T01:37:50;20.90;99.90
7143;DHT22;3613;48.902;9.204;2024-03-23T01:40:21;21.00;99.90
7143;DHT22;3613;48.902;9.204;2024-03-23T01:42:57;21.00;99.90
7143;DHT22;3613;48.902;9.204;2024-03-23T01:45:23;21.00;99.90
7143;DHT22;3613;48.902;9.204;2024-03-23T01:47:50;21.00;99.90
7143;DHT22;3613;48.902;9.204;2024-03-23T01:50:16;20.90;99.90
7143;DHT22;3613;48.902;9.204;2024-03-23T01:52:42;20.90;99.90
7143;DHT22;3613;48.902;9.204;2024-03-23T01:55:08;20.90;99.90
7143;DHT22;3613;48.902;9.204;2024-03-23T01:57:34;20.90;99.90
7143;DHT22;3613;48.902;9.204;2024-03-23T02:00:00;20.90;99.90
7143;DHT22;3613;48.902;9.204;2024-03-23T02:02:25;20.90;99.90
7143;DHT22;3613;48.902;9.204;2024-03-23T02:04:51;21.00;99.90
7143;DHT22;3613;48.902;9.204;2024-03-23T02:07:16;20.80;99.90
7143;DHT22;3613;48.902;9.204;2024-03-23T02:09:43;20.80;99.90
7143;DHT22;3613;48.902;9.204;2024-03-23T02:12:11;20.80;99.90
7143;DHT22;3613;48.902;9.204;2024-03-23T02:14:37;20.80;99.90
7143;DHT22;3613;48.902;9.204;2024-03-23T02:17:02;20.80;99.90
7143;DHT22;3613;48.902;9.204;2024-03-23T02:19:28;20.80;99.90
7143;DHT22;3613;48.902;9.204;2024-03-23T02:21:53;20.70;99.90
7143;DHT22;3613;48.902;9.204;2024-03-23T02:24:19;20.90;99.90
7143;DHT22;3613;48.902;9.204;2024-03-23T02:26:44;20.80;99.90
7143;DHT22;3613;48.902;9.204;2024-03-23T02:29:10;20.70;99.90
7143;DHT22;3613;48.902;9.204;2024-03-23T02:31:37;20.80;99.90
7143;DHT22;3613;48.902;9.204;2024-03-23T02:34:02;20.70;99.90
7143;DHT22;3613;48.902;9.204;2024-03-23T02:36:28;20.80;99.90
7143;DHT22;3613;48.902;9.204;2024-03-23T02:38:56;20.80;99.90
7143;DHT22;3613;48.902;9.204;2024-03-23T02:41:21;20.80;99.90
7143;DHT22;3613;48.902;9.204;2024-03-23T02:43:51;20.80;99.90
7143;DHT22;3613;48.902;9.204;2024-03-23T02:46:17;21.00;99.90
7143;DHT22;3613;48.902;9.204;2024-03-23T02:48:45;20.70;99.90
7143;DHT22;3613;48.902;9.204;2024-03-23T02:51:10;20.70;99.90
7143;DHT22;3613;48.902;9.204;2024-03-23T02:53:38;20.70;99.90
7143;DHT22;3613;48.902;9.204;2024-03-23T02:56:04;20.80;99.90
7143;DHT22;3613;48.902;9.204;2024-03-23T02:58:29;20.70;99.90
7143;DHT22;3613;48.902;9.204;2024-03-23T03:00:55;20.70;99.90
7143;DHT22;3613;48.902;9.204;2024-03-23T03:03:21;20.70;99.90
7143;DHT22;3613;48.902;9.204;2024-03-23T03:05:46;20.60;99.90
7143;DHT22;3613;48.902;9.204;2024-03-23T03:08:12;20.70;99.90
7143;DHT22;3613;48.902;9.204;2024-03-23T03:10:37;20.80;99.90
7143;DHT22;3613;48.902;9.204;2024-03-23T03:13:05;20.70;99.90
7143;DHT22;3613;48.902;9.204;2024-03-23T03:15:30;20.60;99.90
7143;DHT22;3613;48.902;9.204;2024-03-23T03:17:56;20.70;99.90
7143;DHT22;3613;48.902;9.204;2024-03-23T03:20:22;20.70;99.90
7143;DHT22;3613;48.902;9.204;2024-03-23T03:22:48;20.60;99.90
7143;DHT22;3613;48.902;9.204;2024-03-23T03:25:14;20.60;99.90
7143;DHT22;3613;48.902;9.204;2024-03-23T03:27:40;20.60;99.90
7143;DHT22;3613;48.902;9.204;2024-03-23T03:30:06;20.60;99.90
7143;DHT22;3613;48.902;9.204;2024-03-23T03:32:33;20.60;99.90
7143;DHT22;3613;48.902;9.204;2024-03-23T03:34:59;20.60;99.90
7143;DHT22;3613;48.902;9.204;2024-03-23T03:37:25;20.70;99.90
7143;DHT22;3613;48.902;9.204;2024-03-23T03:39:50;20.60;99.90
7143;DHT22;3613;48.902;9.204;2024-03-23T03:42:18;20.60;99.90
7143;DHT22;3613;48.902;9.204;2024-03-23T03:44:44;20.60;99.90
7143;DHT22;3613;48.902;9.204;2024-03-23T03:47:09;20.60;99.90
7143;DHT22;3613;48.902;9.204;2024-03-23T03:49:35;20.60;99.90
7143;DHT22;3613;48.902;9.204;2024-03-23T03:52:00;20.60;99.90
7143;DHT22;3613;48.902;9.204;2024-03-23T03:54:27;20.60;99.90
7143;DHT22;3613;48.902;9.204;2024-03-23T03:56:56;20.60;99.90
7143;DHT22;3613;48.902;9.204;2024-03-23T03:59:22;20.60;99.90
7143;DHT22;3613;48.902;9.204;2024-03-23T04:01:47;20.60;99.90
7143;DHT22;3613;48.902;9.204;2024-03-23T04:04:15;20.60;99.90
7143;DHT22;3613;48.902;9.204;2024-03-23T04:06:43;20.60;99.90
7143;DHT22;3613;48.902;9.204;2024-03-23T04:09:09;20.50;99.90
7143;DHT22;3613;48.902;9.204;2024-03-23T04:11:35;20.60;99.90
7143;DHT22;3613;48.902;9.204;2024-03-23T04:14:01;20.60;99.90
7143;DHT22;3613;48.902;9.204;2024-03-23T04:16:27;20.50;99.90
7143;DHT22;3613;48.902;9.204;2024-03-23T04:18:53;20.50;99.90
7143;DHT22;3613;48.902;9.204;2024-03-23T04:21:20;20.50;99.90
7143;DHT22;3613;48.902;9.204;2024-03-23T04:23:46;20.40;99.90
7143;DHT22;3613;48.902;9.204;2024-03-23T04:26:11;20.60;99.90
7143;DHT22;3613;48.902;9.204;2024-03-23T04:28:37;20.60;99.90
7143;DHT22;3613;48.902;9.204;2024-03-23T04:31:05;20.50;99.90
7143;DHT22;3613;48.902;9.204;2024-03-23T04:33:31;20.50;99.90
7143;DHT22;3613;48.902;9.204;2024-03-23T04:35:57;20.50;99.90
7143;DHT22;3613;48.902;9.204;2024-03-23T04:38:22;20.50;99.90
7143;DHT22;3613;48.902;9.204;2024-03-23T04:40:58;20.50;99.90
7143;DHT22;3613;48.902;9.204;2024-03-23T04:43:25;20.50;99.90
7143;DHT22;3613;48.902;9.204;2024-03-23T04:45:50;20.50;99.90
7143;DHT22;3613;48.902;9.204;2024-03-23T04:48:16;20.50;99.90
7143;DHT22;3613;48.902;9.204;2024-03-23T04:50:44;20.50;99.90
7143;DHT22;3613;48.902;9.204;2024-03-23T04:53:12;20.60;99.90
7143;DHT22;3613;48.902;9.204;2024-03-23T04:55:37;20.60;99.90
7143;DHT22;3613;48.902;9.204;2024-03-23T04:58:03;20.50;99.90
7143;DHT22;3613;48.902;9.204;2024-03-23T05:00:29;20.50;99.90
7143;DHT22;3613;48.902;9.204;2024-03-23T05:02:54;20.50;99.90
7143;DHT22;3613;48.902;9.204;2024-03-23T05:05:22;20.60;99.90
7143;DHT22;3613;48.902;9.204;2024-03-23T05:07:48;20.50;99.90
7143;DHT22;3613;48.902;9.204;2024-03-23T05:10:14;20.50;99.90
7143;DHT22;3613;48.902;9.204;2024-03-23T05:12:40;20.50;99.90
7143;DHT22;3613;48.902;9.204;2024-03-23T05:15:06;20.50;99.90
7143;DHT22;3613;48.902;9.204;2024-03-23T05:17:33;20.50;99.90
7143;DHT22;3613;48.902;9.204;2024-03-23T05:19:59;20.50;99.90
7143;DHT22;3613;48.902;9.204;2024-03-23T05:22:27;20.40;99.90
7143;DHT22;3613;48.902;9.204;2024-03-23T05:24:53;20.50;99.90
7143;DHT22;3613;48.902;9.204;2024-03-23T05:27:21;20.40;99.90
7143;DHT22;3613;48.902;9.204;2024-03-23T05:29:49;20.50;99.90
7143;DHT22;3613;48.902;9.204;2024-03-23T05:32:16;20.50;99.90
7143;DHT22;3613;48.902;9.204;2024-03-23T05:34:42;20.50;99.90
7143;DHT22;3613;48.902;9.204;2024-03-23T05:37:07;20.40;99.90
7143;DHT22;3613;48.902;9.204;2024-03-23T05:39:33;20.40;99.90
7143;DHT22;3613;48.902;9.204;2024-03-23T05:42:01;20.40;99.90
7143;DHT22;3613;48.902;9.204;2024-03-23T05:44:26;20.40;99.90
7143;DHT22;3613;48.902;9.204;2024-03-23T05:46:52;20.50;99.90
7143;DHT22;3613;48.902;9.204;2024-03-23T05:49:17;20.40;99.90
7143;DHT22;3613;48.902;9.204;2024-03-23T05:51:43;20.50;99.90
7143;DHT22;3613;48.902;9.204;2024-03-23T05:54:09;20.30;99.90
7143;DHT22;3613;48.902;9.204;2024-03-23T05:56:35;20.50;99.90
7143;DHT22;3613;48.902;9.204;2024-03-23T05:59:00;20.40;99.90
7143;DHT22;3613;48.902;9.204;2024-03-23T06:01:26;20.40;99.90
7143;DHT22;3613;48.902;9.204;2024-03-23T06:03:54;20.40;99.90
7143;DHT22;3613;48.902;9.204;2024-03-23T06:06:20;20.40;99.90
7143;DHT22;3613;48.902;9.204;2024-03-23T06:08:45;20.40;99.90
7143;DHT22;3613;48.902;9.204;2024-03-23T06:11:11;20.40;99.90
7143;DHT22;3613;48.902;9.204;2024-03-23T06:13:38;20.40;99.90
7143;DHT22;3613;48.902;9.204;2024-03-23T06:16:04;20.40;99.90
7143;DHT22;3613;48.902;9.204;2024-03-23T06:18:30;20.40;99.90
7143;DHT22;3613;48.902;9.204;2024-03-23T06:20:59;20.50;99.90
7143;DHT22;3613;48.902;9.204;2024-03-23T06:23:24;20.30;99.90
7143;DHT22;3613;48.902;9.204;2024-03-23T06:25:50;20.40;99.90
7143;DHT22;3613;48.902;9.204;2024-03-23T06:28:15;20.40;99.90
7143;DHT22;3613;48.902;9.204;2024-03-23T06:30:44;20.30;99.90
7143;DHT22;3613;48.902;9.204;2024-03-23T06:33:09;20.40;99.90
7143;DHT22;3613;48.902;9.204;2024-03-23T06:35:35;20.40;99.90
7143;DHT22;3613;48.902;9.204;2024-03-23T06:38:03;20.40;99.90
7143;DHT22;3613;48.902;9.204;2024-03-23T06:40:28;20.40;99.90
7143;DHT22;3613;48.902;9.204;2024-03-23T06:42:54;20.40;99.90
7143;DHT22;3613;48.902;9.204;2024-03-23T06:45:22;20.40;99.90
7143;DHT22;3613;48.902;9.204;2024-03-23T06:47:49;20.40;99.90
7143;DHT22;3613;48.902;9.204;2024-03-23T06:50:16;20.40;99.90
7143;DHT22;3613;48.902;9.204;2024-03-23T06:52:41;20.40;99.90
7143;DHT22;3613;48.902;9.204;2024-03-23T06:55:07;20.40;99.90
7143;DHT22;3613;48.902;9.204;2024-03-23T06:57:33;20.40;99.90
7143;DHT22;3613;48.902;9.204;2024-03-23T07:00:02;20.40;99.90
7143;DHT22;3613;48.902;9.204;2024-03-23T07:02:30;20.40;99.90
7143;DHT22;3613;48.902;9.204;2024-03-23T07:04:55;20.40;99.90
7143;DHT22;3613;48.902;9.204;2024-03-23T07:07:22;20.40;99.90
7143;DHT22;3613;48.902;9.204;2024-03-23T07:09:50;20.40;99.90
7143;DHT22;3613;48.902;9.204;2024-03-23T07:12:15;20.40;99.90
7143;DHT22;3613;48.902;9.204;2024-03-23T07:14:41;20.40;99.90
7143;DHT22;3613;48.902;9.204;2024-03-23T07:17:07;20.40;99.90
7143;DHT22;3613;48.902;9.204;2024-03-23T07:19:32;20.40;99.90
7143;DHT22;3613;48.902;9.204;2024-03-23T07:21:58;20.60;99.90
7143;DHT22;3613;48.902;9.204;2024-03-23T07:24:23;20.50;99.90
7143;DHT22;3613;48.902;9.204;2024-03-23T07:26:49;20.40;99.90
7143;DHT22;3613;48.902;9.204;2024-03-23T07:29:16;20.50;99.90
7143;DHT22;3613;48.902;9.204;2024-03-23T07:31:42;20.50;99.90
7143;DHT22;3613;48.902;9.204;2024-03-23T07:34:07;20.60;99.90
7143;DHT22;3613;48.902;9.204;2024-03-23T07:36:33;20.50;99.90
7143;DHT22;3613;48.902;9.204;2024-03-23T07:38:58;20.50;99.90
7143;DHT22;3613;48.902;9.204;2024-03-23T07:41:24;20.50;99.90
7143;DHT22;3613;48.902;9.204;2024-03-23T07:43:50;20.50;99.90
7143;DHT22;3613;48.902;9.204;2024-03-23T07:46:16;20.50;99.90
7143;DHT22;3613;48.902;9.204;2024-03-23T07:48:41;20.40;99.90
7143;DHT22;3613;48.902;9.204;2024-03-23T07:51:16;20.50;99.90
7143;DHT22;3613;48.902;9.204;2024-03-23T07:53:45;20.40;99.90
7143;DHT22;3613;48.902;9.204;2024-03-23T07:56:12;20.40;99.90
7143;DHT22;3613;48.902;9.204;2024-03-23T07:58:38;20.40;99.90
7143;DHT22;3613;48.902;9.204;2024-03-23T08:01:05;20.40;99.90
7143;DHT22;3613;48.902;9.204;2024-03-23T08:03:33;20.40;99.90
7143;DHT22;3613;48.902;9.204;2024-03-23T08:06:16;20.40;99.90
7143;DHT22;3613;48.902;9.204;2024-03-23T08:08:43;20.40;99.90
7143;DHT22;3613;48.902;9.204;2024-03-23T08:11:12;20.40;99.90
7143;DHT22;3613;48.902;9.204;2024-03-23T08:13:39;20.40;99.90
7143;DHT22;3613;48.902;9.204;2024-03-23T08:16:05;20.40;99.90
7143;DHT22;3613;48.902;9.204;2024-03-23T08:18:31;20.50;99.90
7143;DHT22;3613;48.902;9.204;2024-03-23T08:21:03;20.50;99.90
7143;DHT22;3613;48.902;9.204;2024-03-23T08:23:30;20.50;99.90
7143;DHT22;3613;48.902;9.204;2024-03-23T08:26:00;20.50;99.90
7143;DHT22;3613;48.902;9.204;2024-03-23T08:28:26;20.50;99.90
7143;DHT22;3613;48.902;9.204;2024-03-23T08:30:55;20.50;99.90
7143;DHT22;3613;48.902;9.204;2024-03-23T08:33:22;20.50;99.90
7143;DHT22;3613;48.902;9.204;2024-03-23T08:35:59;20.50;99.90
7143;DHT22;3613;48.902;9.204;2024-03-23T08:38:26;20.60;99.90
7143;DHT22;3613;48.902;9.204;2024-03-23T08:41:00;20.70;99.90
7143;DHT22;3613;48.902;9.204;2024-03-23T08:43:26;20.80;99.90
7143;DHT22;3613;48.902;9.204;2024-03-23T08:45:52;20.80;99.90
7143;DHT22;3613;48.902;9.204;2024-03-23T08:48:20;20.80;99.90
7143;DHT22;3613;48.902;9.204;2024-03-23T08:50:47;20.80;99.90
7143;DHT22;3613;48.902;9.204;2024-03-23T08:53:12;20.70;99.90
7143;DHT22;3613;48.902;9.204;2024-03-23T08:55:43;20.80;99.90
7143;DHT22;3613;48.902;9.204;2024-03-23T08:58:18;20.70;99.90
7143;DHT22;3613;48.902;9.204;2024-03-23T09:00:47;20.70;99.90
7143;DHT22;3613;48.902;9.204;2024-03-23T09:03:15;20.60;99.90
7143;DHT22;3613;48.902;9.204;2024-03-23T09:05:41;20.60;99.90
7143;DHT22;3613;48.902;9.204;2024-03-23T09:08:07;20.60;99.90
7143;DHT22;3613;48.902;9.204;2024-03-23T09:10:41;20.60;99.90
7143;DHT22;3613;48.902;9.204;2024-03-23T09:13:07;20.60;99.90
7143;DHT22;3613;48.902;9.204;2024-03-23T09:15:35;20.70;99.90
7143;DHT22;3613;48.902;9.204;2024-03-23T09:18:01;20.70;99.90
7143;DHT22;3613;48.902;9.204;2024-03-23T09:20:32;20.70;99.90
7143;DHT22;3613;48.902;9.204;2024-03-23T09:22:58;20.80;99.90
7143;DHT22;3613;48.902;9.204;2024-03-23T09:25:23;20.80;99.90
7143;DHT22;3613;48.902;9.204;2024-03-23T09:27:53;20.80;99.90
7143;DHT22;3613;48.902;9.204;2024-03-23T09:30:19;20.90;99.90
7143;DHT22;3613;48.902;9.204;2024-03-23T09:32:45;20.80;99.90
7143;DHT22;3613;48.902;9.204;2024-03-23T09:35:11;20.80;99.90
7143;DHT22;3613;48.902;9.204;2024-03-23T09:37:38;20.90;99.90
7143;DHT22;3613;48.902;9.204;2024-03-23T09:40:09;20.90;99.90
7143;DHT22;3613;48.902;9.204;2024-03-23T09:42:35;20.90;99.90
7143;DHT22;3613;48.902;9.204;2024-03-23T09:45:01;20.90;99.90
7143;DHT22;3613;48.902;9.204;2024-03-23T09:47:27;20.90;99.90
7143;DHT22;3613;48.902;9.204;2024-03-23T09:49:53;20.90;99.90
7143;DHT22;3613;48.902;9.204;2024-03-23T09:52:19;20.90;99.90
7143;DHT22;3613;48.902;9.204;2024-03-23T09:54:50;21.00;99.90
7143;DHT22;3613;48.902;9.204;2024-03-23T09:57:15;21.00;99.90
7143;DHT22;3613;48.902;9.204;2024-03-23T09:59:41;21.10;99.90
7143;DHT22;3613;48.902;9.204;2024-03-23T10:02:07;21.20;99.90
7143;DHT22;3613;48.902;9.204;2024-03-23T10:04:42;21.20;99.90
7143;DHT22;3613;48.902;9.204;2024-03-23T10:07:19;21.20;99.90
7143;DHT22;3613;48.902;9.204;2024-03-23T10:09:45;21.20;99.90
7143;DHT22;3613;48.902;9.204;2024-03-23T10:12:14;21.20;99.90
7143;DHT22;3613;48.902;9.204;2024-03-23T10:14:42;21.20;99.90
7143;DHT22;3613;48.902;9.204;2024-03-23T10:19:39;21.20;99.90
7143;DHT22;3613;48.902;9.204;2024-03-23T10:22:12;21.10;99.90
7143;DHT22;3613;48.902;9.204;2024-03-23T10:24:41;21.10;99.90
7143;DHT22;3613;48.902;9.204;2024-03-23T10:27:07;21.10;99.90
7143;DHT22;3613;48.902;9.204;2024-03-23T10:29:35;21.00;99.90
7143;DHT22;3613;48.902;9.204;2024-03-23T10:32:10;20.90;99.90
7143;DHT22;3613;48.902;9.204;2024-03-23T10:34:37;20.80;99.90
7143;DHT22;3613;48.902;9.204;2024-03-23T10:37:03;20.80;99.90
7143;DHT22;3613;48.902;9.204;2024-03-23T10:39:39;20.80;99.90
7143;DHT22;3613;48.902;9.204;2024-03-23T10:42:06;20.80;99.90
7143;DHT22;3613;48.902;9.204;2024-03-23T10:44:33;20.80;99.90
7143;DHT22;3613;48.902;9.204;2024-03-23T10:46:59;20.70;99.90
7143;DHT22;3613;48.902;9.204;2024-03-23T10:49:33;20.70;99.90
7143;DHT22;3613;48.902;9.204;2024-03-23T10:52:05;20.80;99.90
7143;DHT22;3613;48.902;9.204;2024-03-23T10:54:33;20.80;99.90
7143;DHT22;3613;48.902;9.204;2024-03-23T11:00:03;20.80;99.90
7143;DHT22;3613;48.902;9.204;2024-03-23T11:02:29;20.80;99.90
7143;DHT22;3613;48.902;9.204;2024-03-23T11:04:55;20.80;99.90
7143;DHT22;3613;48.902;9.204;2024-03-23T11:09:56;20.80;99.90
7143;DHT22;3613;48.902;9.204;2024-03-23T11:17:25;20.90;99.90
7143;DHT22;3613;48.902;9.204;2024-03-23T11:27:49;21.00;99.90
7143;DHT22;3613;48.902;9.204;2024-03-23T11:30:24;21.00;99.90
7143;DHT22;3613;48.902;9.204;2024-03-23T11:32:52;21.00;99.90
7143;DHT22;3613;48.902;9.204;2024-03-23T11:38:15;21.10;99.90
7143;DHT22;3613;48.902;9.204;2024-03-23T11:40:48;21.10;99.90
7143;DHT22;3613;48.902;9.204;2024-03-23T11:43:16;21.10;99.90
7143;DHT22;3613;48.902;9.204;2024-03-23T11:45:51;21.20;99.90
7143;DHT22;3613;48.902;9.204;2024-03-23T11:48:19;21.20;99.90
7143;DHT22;3613;48.902;9.204;2024-03-23T11:50:47;21.20;99.90
7143;DHT22;3613;48.902;9.204;2024-03-23T11:58:21;21.10;99.90
7143;DHT22;3613;48.902;9.204;2024-03-23T12:03:23;21.10;99.90
7143;DHT22;3613;48.902;9.204;2024-03-23T12:05:52;21.10;99.90
7143;DHT22;3613;48.902;9.204;2024-03-23T12:10:48;21.10;99.90
7143;DHT22;3613;48.902;9.204;2024-03-23T12:13:23;21.10;99.90
7143;DHT22;3613;48.902;9.204;2024-03-23T12:15:50;21.10;99.90
7143;DHT22;3613;48.902;9.204;2024-03-23T12:18:16;21.10;99.90
7143;DHT22;3613;48.902;9.204;2024-03-23T12:20:42;21.10;99.90
7143;DHT22;3613;48.902;9.204;2024-03-23T12:23:12;21.00;99.90
7143;DHT22;3613;48.902;9.204;2024-03-23T12:25:40;21.00;99.90
7143;DHT22;3613;48.902;9.204;2024-03-23T12:28:06;21.00;99.90
7143;DHT22;3613;48.902;9.204;2024-03-23T12:30:39;21.00;99.90
7143;DHT22;3613;48.902;9.204;2024-03-23T12:33:05;21.00;99.90
7143;DHT22;3613;48.902;9.204;2024-03-23T12:35:31;21.00;99.90
7143;DHT22;3613;48.902;9.204;2024-03-23T12:37:57;21.00;99.90
7143;DHT22;3613;48.902;9.204;2024-03-23T12:40:23;21.00;99.90
7143;DHT22;3613;48.902;9.204;2024-03-23T12:42:48;20.90;99.90
7143;DHT22;3613;48.902;9.204;2024-03-23T12:45:14;21.00;99.90
7143;DHT22;3613;48.902;9.204;2024-03-23T12:47:40;21.00;99.90
7143;DHT22;3613;48.902;9.204;2024-03-23T12:50:06;21.00;99.90
7143;DHT22;3613;48.902;9.204;2024-03-23T12:52:34;21.00;99.90
7143;DHT22;3613;48.902;9.204;2024-03-23T12:55:00;21.10;99.90
7143;DHT22;3613;48.902;9.204;2024-03-23T12:57:25;21.00;99.90
7143;DHT22;3613;48.902;9.204;2024-03-23T12:59:52;21.00;99.90
7143;DHT22;3613;48.902;9.204;2024-03-23T13:02:19;21.00;99.90
7143;DHT22;3613;48.902;9.204;2024-03-23T13:04:46;20.90;99.90
7143;DHT22;3613;48.902;9.204;2024-03-23T13:07:14;20.90;99.90
7143;DHT22;3613;48.902;9.204;2024-03-23T13:09:40;21.10;99.90
7143;DHT22;3613;48.902;9.204;2024-03-23T13:12:06;21.10;99.90
7143;DHT22;3613;48.902;9.204;2024-03-23T13:14:32;21.10;99.90
7143;DHT22;3613;48.902;9.204;2024-03-23T13:16:57;21.00;99.90
7143;DHT22;3613;48.902;9.204;2024-03-23T13:19:23;21.00;99.90
7143;DHT22;3613;48.902;9.204;2024-03-23T13:21:55;21.00;99.90
7143;DHT22;3613;48.902;9.204;2024-03-23T13:24:26;21.00;99.90
7143;DHT22;3613;48.902;9.204;2024-03-23T13:26:53;21.00;99.90
7143;DHT22;3613;48.902;9.204;2024-03-23T13:29:21;21.00;99.90
7143;DHT22;3613;48.902;9.204;2024-03-23T13:31:51;21.00;99.90
7143;DHT22;3613;48.902;9.204;2024-03-23T13:34:17;21.00;99.90
7143;DHT22;3613;48.902;9.204;2024-03-23T13:36:47;20.90;99.90
7143;DHT22;3613;48.902;9.204;2024-03-23T13:39:14;21.10;99.90
7143;DHT22;3613;48.902;9.204;2024-03-23T13:41:44;21.00;99.90
7143;DHT22;3613;48.902;9.204;2024-03-23T13:44:13;21.00;99.90
7143;DHT22;3613;48.902;9.204;2024-03-23T13:46:40;21.00;99.90
7143;DHT22;3613;48.902;9.204;2024-03-23T13:49:25;21.00;99.90
7143;DHT22;3613;48.902;9.204;2024-03-23T13:51:52;21.00;99.90
7143;DHT22;3613;48.902;9.204;2024-03-23T13:54:17;21.00;99.90
7143;DHT22;3613;48.902;9.204;2024-03-23T13:56:43;21.00;99.90
7143;DHT22;3613;48.902;9.204;2024-03-23T13:59:09;20.90;99.90
7143;DHT22;3613;48.902;9.204;2024-03-23T14:01:35;20.80;99.90
7143;DHT22;3613;48.902;9.204;2024-03-23T14:04:01;20.90;99.90
7143;DHT22;3613;48.902;9.204;2024-03-23T14:06:29;20.90;99.90
7143;DHT22;3613;48.902;9.204;2024-03-23T14:08:57;20.80;99.90
7143;DHT22;3613;48.902;9.204;2024-03-23T14:11:25;20.80;99.90
7143;DHT22;3613;48.902;9.204;2024-03-23T14:13:52;20.80;99.90
7143;DHT22;3613;48.902;9.204;2024-03-23T14:16:18;20.80;99.90
7143;DHT22;3613;48.902;9.204;2024-03-23T14:18:46;20.80;99.90
7143;DHT22;3613;48.902;9.204;2024-03-23T14:21:12;20.80;99.90
7143;DHT22;3613;48.902;9.204;2024-03-23T14:23:39;20.80;99.90
7143;DHT22;3613;48.902;9.204;2024-03-23T14:26:08;20.80;99.90
7143;DHT22;3613;48.902;9.204;2024-03-23T14:28:34;20.80;99.90
7143;DHT22;3613;48.902;9.204;2024-03-23T14:31:00;20.80;99.90
7143;DHT22;3613;48.902;9.204;2024-03-23T14:33:28;20.80;99.90
7143;DHT22;3613;48.902;9.204;2024-03-23T14:35:57;20.80;99.90
7143;DHT22;3613;48.902;9.204;2024-03-23T14:38:23;20.80;99.90
7143;DHT22;3613;48.902;9.204;2024-03-23T14:40:49;20.80;99.90
7143;DHT22;3613;48.902;9.204;2024-03-23T14:43:15;20.80;99.90
7143;DHT22;3613;48.902;9.204;2024-03-23T14:46:09;20.80;99.90
7143;DHT22;3613;48.902;9.204;2024-03-23T14:48:36;20.80;99.90
7143;DHT22;3613;48.902;9.204;2024-03-23T14:51:02;20.80;99.90
7143;DHT22;3613;48.902;9.204;2024-03-23T14:53:31;20.80;99.90
7143;DHT22;3613;48.902;9.204;2024-03-23T14:55:57;20.80;99.90
7143;DHT22;3613;48.902;9.204;2024-03-23T14:58:23;20.80;99.90
7143;DHT22;3613;48.902;9.204;2024-03-23T15:00:51;20.90;99.90
7143;DHT22;3613;48.902;9.204;2024-03-23T15:03:19;20.80;99.90
7143;DHT22;3613;48.902;9.204;2024-03-23T15:05:55;20.80;99.90
7143;DHT22;3613;48.902;9.204;2024-03-23T15:08:23;20.70;99.90
7143;DHT22;3613;48.902;9.204;2024-03-23T15:10:49;20.80;99.90
7143;DHT22;3613;48.902;9.204;2024-03-23T15:13:17;20.80;99.90
7143;DHT22;3613;48.902;9.204;2024-03-23T15:15:43;20.80;99.90
7143;DHT22;3613;48.902;9.204;2024-03-23T15:18:13;20.90;99.90
7143;DHT22;3613;48.902;9.204;2024-03-23T15:20:51;20.80;99.90
7143;DHT22;3613;48.902;9.204;2024-03-23T15:23:17;20.80;99.90
7143;DHT22;3613;48.902;9.204;2024-03-23T15:25:42;20.60;99.90
7143;DHT22;3613;48.902;9.204;2024-03-23T15:28:08;20.80;99.90
7143;DHT22;3613;48.902;9.204;2024-03-23T15:30:33;20.80;99.90
7143;DHT22;3613;48.902;9.204;2024-03-23T15:32:59;20.80;99.90
7143;DHT22;3613;48.902;9.204;2024-03-23T15:35:24;20.80;99.90
7143;DHT22;3613;48.902;9.204;2024-03-23T15:37:50;20.80;99.90
7143;DHT22;3613;48.902;9.204;2024-03-23T15:40:16;20.80;99.90
7143;DHT22;3613;48.902;9.204;2024-03-23T15:42:44;20.90;99.90
7143;DHT22;3613;48.902;9.204;2024-03-23T15:45:12;20.90;99.90
7143;DHT22;3613;48.902;9.204;2024-03-23T15:47:40;20.70;99.90
7143;DHT22;3613;48.902;9.204;2024-03-23T15:50:08;20.80;99.90
7143;DHT22;3613;48.902;9.204;2024-03-23T15:52:36;20.70;99.90
7143;DHT22;3613;48.902;9.204;2024-03-23T15:55:08;20.80;99.90
7143;DHT22;3613;48.902;9.204;2024-03-23T15:57:35;20.70;99.90
7143;DHT22;3613;48.902;9.204;2024-03-23T16:00:01;20.70;99.90
7143;DHT22;3613;48.902;9.204;2024-03-23T16:02:27;20.70;99.90
7143;DHT22;3613;48.902;9.204;2024-03-23T16:04:54;20.60;99.90
7143;DHT22;3613;48.902;9.204;2024-03-23T16:07:19;20.70;99.90
7143;DHT22;3613;48.902;9.204;2024-03-23T16:09:47;20.70;99.90
7143;DHT22;3613;48.902;9.204;2024-03-23T16:12:13;20.70;99.90
7143;DHT22;3613;48.902;9.204;2024-03-23T16:14:38;20.70;99.90
7143;DHT22;3613;48.902;9.204;2024-03-23T16:17:04;21.90;99.90
7143;DHT22;3613;48.902;9.204;2024-03-23T16:19:30;20.60;99.90
7143;DHT22;3613;48.902;9.204;2024-03-23T16:21:55;20.60;99.90
7143;DHT22;3613;48.902;9.204;2024-03-23T16:24:21;20.70;99.90
7143;DHT22;3613;48.902;9.204;2024-03-23T16:26:47;20.60;99.90
7143;DHT22;3613;48.902;9.204;2024-03-23T16:29:14;20.60;99.90
7143;DHT22;3613;48.902;9.204;2024-03-23T16:31:40;20.60;99.90
7143;DHT22;3613;48.902;9.204;2024-03-23T16:34:06;20.60;99.90
7143;DHT22;3613;48.902;9.204;2024-03-23T16:36:32;20.60;99.90
7143;DHT22;3613;48.902;9.204;2024-03-23T16:38:57;20.60;99.90
7143;DHT22;3613;48.902;9.204;2024-03-23T16:41:23;20.60;99.90
7143;DHT22;3613;48.902;9.204;2024-03-23T16:43:48;20.60;99.90
7143;DHT22;3613;48.902;9.204;2024-03-23T16:46:14;20.50;99.90
7143;DHT22;3613;48.902;9.204;2024-03-23T16:48:44;20.60;99.90
7143;DHT22;3613;48.902;9.204;2024-03-23T16:51:12;20.50;99.90
7143;DHT22;3613;48.902;9.204;2024-03-23T16:53:38;20.40;99.90
7143;DHT22;3613;48.902;9.204;2024-03-23T16:56:08;20.40;99.90
7143;DHT22;3613;48.902;9.204;2024-03-23T16:58:35;20.30;99.90
7143;DHT22;3613;48.902;9.204;2024-03-23T17:01:09;20.30;99.90
7143;DHT22;3613;48.902;9.204;2024-03-23T17:03:37;20.30;99.90
7143;DHT22;3613;48.902;9.204;2024-03-23T17:06:06;20.20;99.90
7143;DHT22;3613;48.902;9.204;2024-03-23T17:08:33;20.10;99.90
7143;DHT22;3613;48.902;9.204;2024-03-23T17:10:59;20.10;99.90
7143;DHT22;3613;48.902;9.204;2024-03-23T17:13:29;20.10;99.90
7143;DHT22;3613;48.902;9.204;2024-03-23T17:15:55;20.00;99.90
7143;DHT22;3613;48.902;9.204;2024-03-23T17:18:20;19.90;99.90
7143;DHT22;3613;48.902;9.204;2024-03-23T17:20:46;19.90;99.90
7143;DHT22;3613;48.902;9.204;2024-03-23T17:23:11;20.00;99.90
7143;DHT22;3613;48.902;9.204;2024-03-23T17:25:37;20.00;99.90
7143;DHT22;3613;48.902;9.204;2024-03-23T17:28:03;20.00;99.90